x

Gulf Of Maine - 78 Nm East Of Portsmouth, Nh (44005) Wave Buoy

1:50 - Wed 22nd Oct 2014 All times are EDT. -4 hours from GMT.

  • Sig Wave height 5.2ft
  • Peak Period 7s
  • Average Period 5s
  • Wind
    25mph, 31mph gusts
  • Sea Temp 56°f
  • Ar Temp 56°f
  • Sea Pressure 1015.3mb
  • Gulf Of Maine - 78 Nm East Of Portsmouth, Nh
  • Gulf Of Maine - 78 Nm East Of Portsmouth, Nh

More Historic Weather Station data

Upgrade to MSW Pro to gain access to the past 30 days of data for over 8000 Wavebouys and Weather Stations around the globe.

Join Pro

Comparision Forecast

View Surf forecast
   
Qua 10/22 1:50 5ft 7s 5s 25 31 mph 1015.3mb 56f 56f
12:50 5ft 6s 5s 18 22 mph 1015.6mb 56f 56f
Ter 10/21 11:50 6ft 6s 5s 18 22 mph 1015.4mb 56f 57f
10:50 6ft 6s 5s 18 22 mph 1015.3mb 56f 57f
9:50 5ft 6s 5s 25 31 mph 1014.6mb 56f 57f
8:50 4.5ft 6s 5s 20 22 mph 1014.4mb 56f 57f
7:50 4.5ft 6s 4s 20 25 mph 1014.2mb 56f 57f
6:50 4.5ft 6s 5s 18 20 mph 1014.6mb 55f 56f
5:50 5ft 7s 5s 18 20 mph 1014.6mb 56f 56f
4:50 5ft 7s 5s 18 22 mph 1014.6mb 56f 57f
3:50 3.5ft 6s 5s 18 20 mph 1014.8mb 56f 57f
2:50 3ft 5s 5s 11 13 mph 1015mb 56f 57f
1:50 2.5ft 5s 4s 13 16 mph 1014.9mb 56f 57f
12:50 2.5ft 5s 4s 18 20 mph 1015.2mb 56f 57f
11:50 2.5ft 3s 4s 18 20 mph 1015.7mb 56f 57f
10:50 2.5ft 6s 4s 16 18 mph 1016.6mb 55f 57f
9:50 2.5ft 5s 4s 13 16 mph 1016.5mb 55f 57f
8:50 2.5ft 6s 4s 13 16 mph 1016.6mb 55f 56f
7:50 2.5ft 5s 5s 13 16 mph 1016.3mb 55f 56f
6:50 3ft 5s 5s 11 13 mph 1015.9mb 55f 56f
5:50 3.5ft 5s 5s 9 11 mph 1016.4mb 55f 56f
4:50 3.5ft 6s 5s 7 9 mph 1016.2mb 55f 56f
3:50 3.5ft 6s 5s 7 9 mph 1016.2mb 55f 56f
2:50 3.5ft 6s 5s 11 13 mph 1016.4mb 55f 55f
1:50 3.5ft 5s 4s 13 16 mph 1016.3mb 55f 55f
12:50 3.5ft 10s 4s 16 20 mph 1016mb 55f 55f
Seg 10/20 11:50  -   -   -  16 20 mph 1015.7mb 55f 55f
10:50 3ft 4s 4s 16 18 mph 1015.4mb 55f 56f
9:50 3ft 5s 4s 13 18 mph 1015mb 55f 55f
8:50 3.5ft 5s 4s 13 18 mph 1014.8mb 55f 55f
7:50 3.5ft 5s 4s 16 18 mph 1014.7mb 55f 54f
6:50 4.5ft 6s 5s 18 25 mph 1014.6mb 55f 53f
5:50 4ft 5s 4s 22 25 mph 1014.2mb 55f 52f
4:50 4.5ft 6s 4s 20 25 mph 1013.9mb 56f 51f
3:50 4ft 5s 4s 20 25 mph 1013.9mb 56f 50f
2:50 3.5ft 4s 4s 20 25 mph 1013.8mb 56f 48f
1:50 3.5ft 11s 4s 20 22 mph 1014.1mb 56f 47f
12:50 3ft 11s 4s 16 22 mph 1014.4mb 56f 46f
11:50 3ft 10s 4s 16 20 mph 1014.9mb 56f 46f
10:50 3.5ft 11s 5s 13 18 mph 1015.1mb 56f 46f
9:50 3.5ft 5s 5s 13 18 mph 1015.2mb 55f 46f
8:50 4ft 6s 5s 13 20 mph 1014.7mb 55f 46f
7:50 5ft 6s 5s 16 20 mph 1014.2mb 55f 46f
6:50 5ft 6s 5s 18 22 mph 1013.2mb 55f 46f
5:50 4.5ft 6s 5s 20 25 mph 1012.6mb 55f 47f
4:50  -   -   -  20 25 mph 1012.2mb 55f 47f
3:50  -   -   -  20 27 mph 1011.6mb 56f 47f
2:50 5.5ft 6s 5s 25 29 mph 1011.1mb 56f 47f
1:50 6ft 6s 5s 27 31 mph 1010.7mb 56f 47f
12:50 5.5ft 5s  -  22 31 mph 1010.2mb 56f 48f
Dom 10/19 11:50 6ft 6s 5s 22 29 mph 1009.9mb 56f 48f
10:50 7.5ft 6s 5s 25 31 mph 1009.5mb 56f 48f
9:50 7ft 12s 5s 27 34 mph 1009.1mb 56f 49f
8:50 6ft 6s 5s 25 31 mph 1008.8mb 56f 49f
7:50 7ft 6s 5s 25 31 mph 1008.2mb 56f 49f
6:50 6ft 6s 5s 25 31 mph 1007.5mb 56f 50f
5:50 5ft 5s 5s 27 34 mph 1006.8mb 57f 51f
4:50 4.5ft 14s 5s 22 29 mph 1006.8mb 57f 52f
3:50  -   -   -  13 18 mph 1006.7mb 57f 50f
2:50 5ft 13s 5s 13 16 mph 1006.3mb 57f 49f
1:50 5ft 10s 5s 13 18 mph 1006.5mb 57f 48f
12:50 5.5ft 13s 6s 18 22 mph 1005.2mb 57f 48f
11:50 6ft 12s 6s 18 22 mph 1006.1mb 57f 48f
10:50 6.5ft 14s 6s 18 22 mph 1006.1mb 57f 49f
9:50 6ft 14s 5s 20 27 mph 1005.7mb 57f 49f
8:50 6.5ft 13s 6s 22 27 mph 1005.2mb 57f 50f
7:50 6ft 13s 6s 22 27 mph 1004mb 57f 52f
6:50 5.5ft 14s 6s 22 27 mph 1002.9mb 57f 53f
5:50 6ft 15s 7s 22 27 mph 1001.8mb 57f 54f
4:50  -   -   -  13 20 mph 1001.1mb 57f 57f
3:50 6ft 16s 7s 18 20 mph 1000.6mb 57f 57f
2:50 7ft 16s 7s 16 18 mph 1000.3mb 57f 58f
1:50 7ft 9s 7s 18 20 mph 999.8mb 57f 58f
12:50 6.5ft 10s 8s 18 20 mph 999.4mb 57f 58f
Sáb 10/18 11:50 7ft 10s 8s 16 18 mph 999.1mb 57f 59f
10:50 6ft 11s 8s 13 18 mph 998.9mb 58f 60f
9:50 6.5ft 10s 8s 9 11 mph 998.8mb 58f 60f
8:50 6ft 11s 7s 9 11 mph 998.6mb 58f 60f
7:50 6.5ft 11s 7s 11 13 mph 998.2mb 58f 60f
6:50 6.5ft 14s 7s 13 16 mph 998mb 58f 60f
5:50 6ft 14s 7s 16 18 mph 997.9mb 58f 60f
4:50 6ft 14s 7s 13 16 mph 998mb 58f 60f
3:50 7.5ft 15s 8s 13 16 mph 998.7mb 58f 60f
2:50 7ft 10s 7s 13 16 mph 999.2mb 58f 60f
1:50 8ft 15s 8s 13 16 mph 999.6mb 58f 60f
12:50 7ft 9s 7s 13 16 mph 1000.2mb 58f 60f
11:50 8.5ft 16s 8s 13 18 mph 1001mb 58f 60f
10:50 7.5ft 14s 8s 16 18 mph 1001.4mb 57f 60f
9:50 7.5ft 10s 8s 13 16 mph 1001.7mb 57f 60f
8:50 7ft 10s 7s 13 18 mph 1002.1mb 57f 60f
7:50 7ft 10s 7s 16
mph
1002.3mb 57f 59f